sensor_id;sensor_type;location;lat;lon;timestamp;P1;durP1;ratioP1;P2;durP2;ratioP2
41289;SDS011;36117;46.680;11.154;2022-11-10T00:02:52;10.63;;;5.38;;
41289;SDS011;36117;46.680;11.154;2022-11-10T00:05:18;14.90;;;5.10;;
41289;SDS011;36117;46.680;11.154;2022-11-10T00:07:44;11.90;;;5.35;;
41289;SDS011;36117;46.680;11.154;2022-11-10T00:10:10;10.52;;;5.00;;
41289;SDS011;36117;46.680;11.154;2022-11-10T00:12:36;9.35;;;4.90;;
41289;SDS011;36117;46.680;11.154;2022-11-10T00:15:03;9.57;;;4.80;;
41289;SDS011;36117;46.680;11.154;2022-11-10T00:17:48;5.60;;;3.85;;
41289;SDS011;36117;46.680;11.154;2022-11-10T00:20:14;11.23;;;4.80;;
41289;SDS011;36117;46.680;11.154;2022-11-10T00:22:40;9.50;;;4.65;;
41289;SDS011;36117;46.680;11.154;2022-11-10T00:25:06;11.95;;;5.25;;
41289;SDS011;36117;46.680;11.154;2022-11-10T00:27:32;9.60;;;4.53;;
41289;SDS011;36117;46.680;11.154;2022-11-10T00:29:59;9.85;;;4.45;;
41289;SDS011;36117;46.680;11.154;2022-11-10T00:32:25;9.57;;;4.85;;
41289;SDS011;36117;46.680;11.154;2022-11-10T00:34:50;9.43;;;4.85;;
41289;SDS011;36117;46.680;11.154;2022-11-10T00:37:16;9.55;;;4.63;;
41289;SDS011;36117;46.680;11.154;2022-11-10T00:39:42;15.30;;;5.88;;
41289;SDS011;36117;46.680;11.154;2022-11-10T00:42:08;7.80;;;4.30;;
41289;SDS011;36117;46.680;11.154;2022-11-10T00:44:34;12.13;;;5.05;;
41289;SDS011;36117;46.680;11.154;2022-11-10T00:46:59;10.95;;;5.63;;
41289;SDS011;36117;46.680;11.154;2022-11-10T00:49:25;9.40;;;5.00;;
41289;SDS011;36117;46.680;11.154;2022-11-10T00:51:51;8.57;;;5.07;;
41289;SDS011;36117;46.680;11.154;2022-11-10T00:54:18;9.25;;;4.10;;
41289;SDS011;36117;46.680;11.154;2022-11-10T00:56:44;15.48;;;5.20;;
41289;SDS011;36117;46.680;11.154;2022-11-10T00:59:09;11.20;;;5.00;;
41289;SDS011;36117;46.680;11.154;2022-11-10T01:01:35;7.28;;;4.55;;
41289;SDS011;36117;46.680;11.154;2022-11-10T01:04:01;17.38;;;5.72;;
41289;SDS011;36117;46.680;11.154;2022-11-10T01:06:27;9.32;;;4.22;;
41289;SDS011;36117;46.680;11.154;2022-11-10T01:08:53;13.60;;;5.40;;
41289;SDS011;36117;46.680;11.154;2022-11-10T01:11:19;11.15;;;5.28;;
41289;SDS011;36117;46.680;11.154;2022-11-10T01:13:48;10.13;;;5.07;;
41289;SDS011;36117;46.680;11.154;2022-11-10T01:16:19;9.70;;;4.00;;
41289;SDS011;36117;46.680;11.154;2022-11-10T01:18:55;11.48;;;4.65;;
41289;SDS011;36117;46.680;11.154;2022-11-10T01:21:22;12.05;;;4.60;;
41289;SDS011;36117;46.680;11.154;2022-11-10T01:23:48;9.02;;;4.70;;
41289;SDS011;36117;46.680;11.154;2022-11-10T01:26:15;13.18;;;4.00;;
41289;SDS011;36117;46.680;11.154;2022-11-10T01:28:41;9.57;;;5.10;;
41289;SDS011;36117;46.680;11.154;2022-11-10T01:31:08;9.18;;;5.03;;
41289;SDS011;36117;46.680;11.154;2022-11-10T01:33:36;7.50;;;4.13;;
41289;SDS011;36117;46.680;11.154;2022-11-10T01:36:02;13.93;;;5.47;;
41289;SDS011;36117;46.680;11.154;2022-11-10T01:38:30;10.93;;;4.53;;
41289;SDS011;36117;46.680;11.154;2022-11-10T01:40:58;13.38;;;4.65;;
41289;SDS011;36117;46.680;11.154;2022-11-10T01:43:25;9.52;;;4.40;;
41289;SDS011;36117;46.680;11.154;2022-11-10T01:51:04;13.05;;;5.65;;
41289;SDS011;36117;46.680;11.154;2022-11-10T01:53:39;12.00;;;5.40;;
41289;SDS011;36117;46.680;11.154;2022-11-10T01:56:08;8.32;;;4.18;;
41289;SDS011;36117;46.680;11.154;2022-11-10T01:58:36;7.78;;;5.00;;
41289;SDS011;36117;46.680;11.154;2022-11-10T02:01:06;9.45;;;5.60;;
41289;SDS011;36117;46.680;11.154;2022-11-10T02:06:32;7.95;;;4.55;;
41289;SDS011;36117;46.680;11.154;2022-11-10T02:09:02;7.68;;;3.97;;
41289;SDS011;36117;46.680;11.154;2022-11-10T02:11:28;10.55;;;5.15;;
41289;SDS011;36117;46.680;11.154;2022-11-10T02:13:56;12.70;;;4.28;;
41289;SDS011;36117;46.680;11.154;2022-11-10T02:16:22;11.63;;;4.78;;
41289;SDS011;36117;46.680;11.154;2022-11-10T02:18:48;8.57;;;3.95;;
41289;SDS011;36117;46.680;11.154;2022-11-10T02:21:18;7.78;;;4.65;;
41289;SDS011;36117;46.680;11.154;2022-11-10T02:23:51;12.57;;;4.57;;
41289;SDS011;36117;46.680;11.154;2022-11-10T02:26:19;8.18;;;5.15;;
41289;SDS011;36117;46.680;11.154;2022-11-10T02:28:48;11.75;;;5.13;;
41289;SDS011;36117;46.680;11.154;2022-11-10T02:31:13;10.75;;;5.00;;
41289;SDS011;36117;46.680;11.154;2022-11-10T02:33:39;7.80;;;4.35;;
41289;SDS011;36117;46.680;11.154;2022-11-10T02:36:05;8.80;;;5.03;;
41289;SDS011;36117;46.680;11.154;2022-11-10T02:38:31;10.80;;;5.07;;
41289;SDS011;36117;46.680;11.154;2022-11-10T02:40:57;10.52;;;4.95;;
41289;SDS011;36117;46.680;11.154;2022-11-10T02:43:22;6.53;;;4.57;;
41289;SDS011;36117;46.680;11.154;2022-11-10T02:45:48;11.90;;;5.60;;
41289;SDS011;36117;46.680;11.154;2022-11-10T02:48:14;11.65;;;5.07;;
41289;SDS011;36117;46.680;11.154;2022-11-10T02:50:40;8.02;;;4.70;;
41289;SDS011;36117;46.680;11.154;2022-11-10T02:53:06;8.93;;;4.60;;
41289;SDS011;36117;46.680;11.154;2022-11-10T02:55:32;9.82;;;5.43;;
41289;SDS011;36117;46.680;11.154;2022-11-10T02:57:58;8.98;;;4.47;;
41289;SDS011;36117;46.680;11.154;2022-11-10T03:00:24;9.65;;;4.68;;
41289;SDS011;36117;46.680;11.154;2022-11-10T03:02:55;9.30;;;4.80;;
41289;SDS011;36117;46.680;11.154;2022-11-10T03:05:22;14.38;;;5.47;;
41289;SDS011;36117;46.680;11.154;2022-11-10T03:07:54;10.98;;;4.32;;
41289;SDS011;36117;46.680;11.154;2022-11-10T03:10:21;10.18;;;4.82;;
41289;SDS011;36117;46.680;11.154;2022-11-10T03:12:47;10.82;;;5.30;;
41289;SDS011;36117;46.680;11.154;2022-11-10T03:15:13;8.85;;;4.78;;
41289;SDS011;36117;46.680;11.154;2022-11-10T03:17:39;9.75;;;4.25;;
41289;SDS011;36117;46.680;11.154;2022-11-10T03:20:05;15.07;;;4.80;;
41289;SDS011;36117;46.680;11.154;2022-11-10T03:22:31;13.45;;;5.00;;
41289;SDS011;36117;46.680;11.154;2022-11-10T03:24:57;9.10;;;4.95;;
41289;SDS011;36117;46.680;11.154;2022-11-10T03:27:22;9.98;;;4.60;;
41289;SDS011;36117;46.680;11.154;2022-11-10T03:29:48;7.60;;;4.65;;
41289;SDS011;36117;46.680;11.154;2022-11-10T03:32:14;11.30;;;5.63;;
41289;SDS011;36117;46.680;11.154;2022-11-10T03:34:39;9.90;;;5.25;;
41289;SDS011;36117;46.680;11.154;2022-11-10T03:37:05;9.23;;;5.35;;
41289;SDS011;36117;46.680;11.154;2022-11-10T03:39:31;8.25;;;5.20;;
41289;SDS011;36117;46.680;11.154;2022-11-10T03:41:56;11.95;;;4.93;;
41289;SDS011;36117;46.680;11.154;2022-11-10T03:44:22;10.43;;;4.88;;
41289;SDS011;36117;46.680;11.154;2022-11-10T03:46:48;9.25;;;4.93;;
41289;SDS011;36117;46.680;11.154;2022-11-10T03:49:14;9.27;;;5.28;;
41289;SDS011;36117;46.680;11.154;2022-11-10T03:51:39;8.50;;;5.00;;
41289;SDS011;36117;46.680;11.154;2022-11-10T03:54:05;13.98;;;5.22;;
41289;SDS011;36117;46.680;11.154;2022-11-10T03:56:31;8.00;;;4.80;;
41289;SDS011;36117;46.680;11.154;2022-11-10T03:58:56;15.45;;;5.53;;
41289;SDS011;36117;46.680;11.154;2022-11-10T04:01:22;12.30;;;4.78;;
41289;SDS011;36117;46.680;11.154;2022-11-10T04:03:48;7.93;;;5.10;;
41289;SDS011;36117;46.680;11.154;2022-11-10T04:06:14;13.35;;;5.30;;
41289;SDS011;36117;46.680;11.154;2022-11-10T04:08:58;9.65;;;4.93;;
41289;SDS011;36117;46.680;11.154;2022-11-10T04:11:24;8.57;;;5.13;;
41289;SDS011;36117;46.680;11.154;2022-11-10T04:14:09;9.05;;;5.13;;
41289;SDS011;36117;46.680;11.154;2022-11-10T04:17:04;8.38;;;5.10;;
41289;SDS011;36117;46.680;11.154;2022-11-10T04:19:30;16.38;;;5.20;;
41289;SDS011;36117;46.680;11.154;2022-11-10T04:21:55;7.80;;;4.72;;
41289;SDS011;36117;46.680;11.154;2022-11-10T04:24:21;9.38;;;4.45;;
41289;SDS011;36117;46.680;11.154;2022-11-10T04:26:47;8.63;;;5.00;;
41289;SDS011;36117;46.680;11.154;2022-11-10T04:29:15;6.40;;;4.45;;
41289;SDS011;36117;46.680;11.154;2022-11-10T04:31:42;13.27;;;5.35;;
41289;SDS011;36117;46.680;11.154;2022-11-10T04:34:11;7.65;;;3.50;;
41289;SDS011;36117;46.680;11.154;2022-11-10T04:36:41;9.30;;;4.47;;
41289;SDS011;36117;46.680;11.154;2022-11-10T04:39:08;7.15;;;4.00;;
41289;SDS011;36117;46.680;11.154;2022-11-10T04:41:33;16.50;;;4.88;;
41289;SDS011;36117;46.680;11.154;2022-11-10T04:44:00;9.93;;;5.10;;
41289;SDS011;36117;46.680;11.154;2022-11-10T04:46:28;14.07;;;5.25;;
41289;SDS011;36117;46.680;11.154;2022-11-10T04:48:55;8.13;;;5.03;;
41289;SDS011;36117;46.680;11.154;2022-11-10T04:51:25;8.45;;;5.18;;
41289;SDS011;36117;46.680;11.154;2022-11-10T04:53:53;8.23;;;5.00;;
41289;SDS011;36117;46.680;11.154;2022-11-10T04:56:19;11.15;;;5.13;;
41289;SDS011;36117;46.680;11.154;2022-11-10T04:58:46;11.48;;;5.07;;
41289;SDS011;36117;46.680;11.154;2022-11-10T05:01:14;9.60;;;6.05;;
41289;SDS011;36117;46.680;11.154;2022-11-10T05:03:42;11.07;;;6.07;;
41289;SDS011;36117;46.680;11.154;2022-11-10T05:06:08;14.70;;;6.53;;
41289;SDS011;36117;46.680;11.154;2022-11-10T05:08:34;14.63;;;7.13;;
41289;SDS011;36117;46.680;11.154;2022-11-10T05:11:01;16.35;;;6.22;;
41289;SDS011;36117;46.680;11.154;2022-11-10T05:13:27;17.52;;;6.80;;
41289;SDS011;36117;46.680;11.154;2022-11-10T05:15:53;10.85;;;6.03;;
41289;SDS011;36117;46.680;11.154;2022-11-10T05:18:19;11.27;;;6.50;;
41289;SDS011;36117;46.680;11.154;2022-11-10T05:20:44;14.82;;;5.47;;
41289;SDS011;36117;46.680;11.154;2022-11-10T05:23:10;14.10;;;7.80;;
41289;SDS011;36117;46.680;11.154;2022-11-10T05:25:54;14.93;;;6.63;;
41289;SDS011;36117;46.680;11.154;2022-11-10T05:28:20;10.23;;;5.47;;
41289;SDS011;36117;46.680;11.154;2022-11-10T05:30:47;12.93;;;6.90;;
41289;SDS011;36117;46.680;11.154;2022-11-10T05:33:12;9.95;;;5.22;;
41289;SDS011;36117;46.680;11.154;2022-11-10T05:35:38;10.23;;;5.60;;
41289;SDS011;36117;46.680;11.154;2022-11-10T05:38:04;13.55;;;7.03;;
41289;SDS011;36117;46.680;11.154;2022-11-10T05:40:30;13.13;;;6.78;;
41289;SDS011;36117;46.680;11.154;2022-11-10T05:42:56;17.30;;;7.55;;
41289;SDS011;36117;46.680;11.154;2022-11-10T05:45:23;13.30;;;6.70;;
41289;SDS011;36117;46.680;11.154;2022-11-10T05:47:50;17.67;;;7.43;;
41289;SDS011;36117;46.680;11.154;2022-11-10T05:50:23;11.15;;;6.80;;
41289;SDS011;36117;46.680;11.154;2022-11-10T05:52:50;17.17;;;7.43;;
41289;SDS011;36117;46.680;11.154;2022-11-10T05:55:18;12.23;;;6.18;;
41289;SDS011;36117;46.680;11.154;2022-11-10T05:57:47;12.55;;;6.57;;
41289;SDS011;36117;46.680;11.154;2022-11-10T06:00:14;11.57;;;6.80;;
41289;SDS011;36117;46.680;11.154;2022-11-10T06:02:42;11.90;;;6.35;;
41289;SDS011;36117;46.680;11.154;2022-11-10T06:05:08;14.32;;;6.85;;
41289;SDS011;36117;46.680;11.154;2022-11-10T06:07:34;14.00;;;7.80;;
41289;SDS011;36117;46.680;11.154;2022-11-10T06:10:01;17.58;;;7.78;;
41289;SDS011;36117;46.680;11.154;2022-11-10T06:12:27;12.05;;;7.03;;
41289;SDS011;36117;46.680;11.154;2022-11-10T06:14:55;12.60;;;6.90;;
41289;SDS011;36117;46.680;11.154;2022-11-10T06:17:22;18.92;;;8.00;;
41289;SDS011;36117;46.680;11.154;2022-11-10T06:19:49;10.02;;;6.80;;
41289;SDS011;36117;46.680;11.154;2022-11-10T06:22:15;16.95;;;7.32;;
41289;SDS011;36117;46.680;11.154;2022-11-10T06:24:40;11.27;;;7.20;;
41289;SDS011;36117;46.680;11.154;2022-11-10T06:27:06;13.13;;;7.43;;
41289;SDS011;36117;46.680;11.154;2022-11-10T06:29:31;14.40;;;7.07;;
41289;SDS011;36117;46.680;11.154;2022-11-10T06:31:57;13.55;;;6.90;;
41289;SDS011;36117;46.680;11.154;2022-11-10T06:34:23;12.18;;;7.05;;
41289;SDS011;36117;46.680;11.154;2022-11-10T06:36:49;16.67;;;8.35;;
41289;SDS011;36117;46.680;11.154;2022-11-10T06:39:14;15.85;;;8.27;;
41289;SDS011;36117;46.680;11.154;2022-11-10T06:41:40;19.48;;;7.80;;
41289;SDS011;36117;46.680;11.154;2022-11-10T06:44:06;17.67;;;8.40;;
41289;SDS011;36117;46.680;11.154;2022-11-10T06:46:31;15.65;;;8.95;;
41289;SDS011;36117;46.680;11.154;2022-11-10T06:48:57;14.50;;;7.97;;
41289;SDS011;36117;46.680;11.154;2022-11-10T06:51:23;15.27;;;7.95;;
41289;SDS011;36117;46.680;11.154;2022-11-10T06:53:48;13.85;;;7.28;;
41289;SDS011;36117;46.680;11.154;2022-11-10T06:56:14;16.05;;;9.50;;
41289;SDS011;36117;46.680;11.154;2022-11-10T06:58:40;13.80;;;7.78;;
41289;SDS011;36117;46.680;11.154;2022-11-10T07:01:05;14.60;;;7.28;;
41289;SDS011;36117;46.680;11.154;2022-11-10T07:03:31;12.35;;;6.68;;
41289;SDS011;36117;46.680;11.154;2022-11-10T07:05:57;15.32;;;5.93;;
41289;SDS011;36117;46.680;11.154;2022-11-10T07:08:23;14.38;;;7.10;;
41289;SDS011;36117;46.680;11.154;2022-11-10T07:10:52;13.25;;;7.00;;
41289;SDS011;36117;46.680;11.154;2022-11-10T07:13:19;16.40;;;6.70;;
41289;SDS011;36117;46.680;11.154;2022-11-10T07:15:46;13.73;;;6.30;;
41289;SDS011;36117;46.680;11.154;2022-11-10T07:18:11;11.65;;;6.05;;
41289;SDS011;36117;46.680;11.154;2022-11-10T07:20:38;14.13;;;6.47;;
41289;SDS011;36117;46.680;11.154;2022-11-10T07:23:04;9.75;;;5.95;;
41289;SDS011;36117;46.680;11.154;2022-11-10T07:25:32;13.43;;;5.78;;
41289;SDS011;36117;46.680;11.154;2022-11-10T07:28:01;10.52;;;6.43;;
41289;SDS011;36117;46.680;11.154;2022-11-10T07:30:28;15.25;;;6.78;;
41289;SDS011;36117;46.680;11.154;2022-11-10T07:33:12;11.95;;;6.50;;
41289;SDS011;36117;46.680;11.154;2022-11-10T07:35:39;14.15;;;6.10;;
41289;SDS011;36117;46.680;11.154;2022-11-10T07:38:07;12.70;;;6.20;;
41289;SDS011;36117;46.680;11.154;2022-11-10T07:40:34;14.52;;;5.63;;
41289;SDS011;36117;46.680;11.154;2022-11-10T07:43:00;19.05;;;7.32;;
41289;SDS011;36117;46.680;11.154;2022-11-10T07:45:26;15.50;;;7.93;;
41289;SDS011;36117;46.680;11.154;2022-11-10T07:47:56;12.57;;;7.05;;
41289;SDS011;36117;46.680;11.154;2022-11-10T07:50:26;11.98;;;6.88;;
41289;SDS011;36117;46.680;11.154;2022-11-10T07:53:00;18.42;;;7.00;;
41289;SDS011;36117;46.680;11.154;2022-11-10T07:55:46;22.80;;;7.28;;
41289;SDS011;36117;46.680;11.154;2022-11-10T07:58:13;22.58;;;8.38;;
41289;SDS011;36117;46.680;11.154;2022-11-10T08:00:41;24.52;;;7.55;;
41289;SDS011;36117;46.680;11.154;2022-11-10T08:03:11;11.63;;;7.00;;
41289;SDS011;36117;46.680;11.154;2022-11-10T08:05:39;9.15;;;6.72;;
41289;SDS011;36117;46.680;11.154;2022-11-10T08:08:04;15.38;;;5.57;;
41289;SDS011;36117;46.680;11.154;2022-11-10T08:10:31;12.32;;;5.55;;
41289;SDS011;36117;46.680;11.154;2022-11-10T08:13:01;8.80;;;3.35;;
41289;SDS011;36117;46.680;11.154;2022-11-10T08:15:28;9.90;;;4.07;;
41289;SDS011;36117;46.680;11.154;2022-11-10T08:17:59;9.18;;;3.85;;
41289;SDS011;36117;46.680;11.154;2022-11-10T08:20:29;9.07;;;4.55;;
41289;SDS011;36117;46.680;11.154;2022-11-10T08:22:59;5.43;;;3.20;;
41289;SDS011;36117;46.680;11.154;2022-11-10T08:25:30;4.22;;;2.53;;
41289;SDS011;36117;46.680;11.154;2022-11-10T08:27:58;7.15;;;2.80;;
41289;SDS011;36117;46.680;11.154;2022-11-10T08:30:25;4.90;;;2.28;;
41289;SDS011;36117;46.680;11.154;2022-11-10T08:32:59;6.45;;;2.63;;
41289;SDS011;36117;46.680;11.154;2022-11-10T08:35:27;3.25;;;2.25;;
41289;SDS011;36117;46.680;11.154;2022-11-10T08:37:53;5.93;;;2.72;;
41289;SDS011;36117;46.680;11.154;2022-11-10T08:40:20;5.78;;;2.50;;
41289;SDS011;36117;46.680;11.154;2022-11-10T08:42:57;7.20;;;3.40;;
41289;SDS011;36117;46.680;11.154;2022-11-10T08:45:24;10.30;;;3.55;;
41289;SDS011;36117;46.680;11.154;2022-11-10T08:48:00;5.80;;;3.65;;
41289;SDS011;36117;46.680;11.154;2022-11-10T08:50:27;4.82;;;3.13;;
41289;SDS011;36117;46.680;11.154;2022-11-10T08:52:53;8.70;;;3.42;;
41289;SDS011;36117;46.680;11.154;2022-11-10T08:55:19;5.10;;;3.75;;
41289;SDS011;36117;46.680;11.154;2022-11-10T08:57:46;6.55;;;3.63;;
41289;SDS011;36117;46.680;11.154;2022-11-10T09:00:13;5.40;;;3.25;;
41289;SDS011;36117;46.680;11.154;2022-11-10T09:02:40;4.43;;;2.58;;
41289;SDS011;36117;46.680;11.154;2022-11-10T09:05:06;6.45;;;3.42;;
41289;SDS011;36117;46.680;11.154;2022-11-10T09:07:33;5.10;;;3.30;;
41289;SDS011;36117;46.680;11.154;2022-11-10T09:10:07;6.68;;;3.50;;
41289;SDS011;36117;46.680;11.154;2022-11-10T09:12:33;8.25;;;3.22;;
41289;SDS011;36117;46.680;11.154;2022-11-10T09:15:01;4.95;;;2.72;;
41289;SDS011;36117;46.680;11.154;2022-11-10T09:17:27;3.88;;;2.10;;
41289;SDS011;36117;46.680;11.154;2022-11-10T09:19:53;5.00;;;2.47;;
41289;SDS011;36117;46.680;11.154;2022-11-10T09:22:19;12.90;;;3.05;;
41289;SDS011;36117;46.680;11.154;2022-11-10T09:24:44;5.10;;;3.13;;
41289;SDS011;36117;46.680;11.154;2022-11-10T09:27:10;5.13;;;3.10;;
41289;SDS011;36117;46.680;11.154;2022-11-10T09:29:35;9.73;;;3.85;;
41289;SDS011;36117;46.680;11.154;2022-11-10T09:32:01;7.82;;;3.65;;
41289;SDS011;36117;46.680;11.154;2022-11-10T09:34:27;9.70;;;4.20;;
41289;SDS011;36117;46.680;11.154;2022-11-10T09:36:52;10.07;;;3.90;;
41289;SDS011;36117;46.680;11.154;2022-11-10T09:39:18;6.97;;;3.70;;
41289;SDS011;36117;46.680;11.154;2022-11-10T09:41:44;10.90;;;4.63;;
41289;SDS011;36117;46.680;11.154;2022-11-10T09:47:27;8.63;;;4.85;;
41289;SDS011;36117;46.680;11.154;2022-11-10T09:50:13;9.82;;;4.75;;
41289;SDS011;36117;46.680;11.154;2022-11-10T09:52:45;10.10;;;4.28;;
41289;SDS011;36117;46.680;11.154;2022-11-10T09:55:17;8.95;;;4.80;;
41289;SDS011;36117;46.680;11.154;2022-11-10T09:57:52;6.57;;;3.35;;
41289;SDS011;36117;46.680;11.154;2022-11-10T10:00:20;5.85;;;2.85;;
41289;SDS011;36117;46.680;11.154;2022-11-10T10:03:04;5.07;;;3.10;;
41289;SDS011;36117;46.680;11.154;2022-11-10T10:05:40;4.53;;;3.03;;
41289;SDS011;36117;46.680;11.154;2022-11-10T10:10:46;9.68;;;5.50;;
41289;SDS011;36117;46.680;11.154;2022-11-10T10:24:02;11.10;;;4.72;;
41289;SDS011;36117;46.680;11.154;2022-11-10T10:26:30;7.97;;;3.97;;
41289;SDS011;36117;46.680;11.154;2022-11-10T10:29:04;5.40;;;3.45;;
41289;SDS011;36117;46.680;11.154;2022-11-10T10:31:46;5.80;;;3.17;;
41289;SDS011;36117;46.680;11.154;2022-11-10T10:34:17;6.82;;;3.15;;
41289;SDS011;36117;46.680;11.154;2022-11-10T10:36:49;4.60;;;2.78;;
41289;SDS011;36117;46.680;11.154;2022-11-10T10:39:32;4.35;;;2.30;;
41289;SDS011;36117;46.680;11.154;2022-11-10T10:45:11;5.93;;;3.00;;
41289;SDS011;36117;46.680;11.154;2022-11-10T10:47:52;9.38;;;3.67;;
41289;SDS011;36117;46.680;11.154;2022-11-10T10:55:43;9.40;;;4.10;;
41289;SDS011;36117;46.680;11.154;2022-11-10T10:58:28;8.60;;;4.95;;
41289;SDS011;36117;46.680;11.154;2022-11-10T11:03:40;7.05;;;4.00;;
41289;SDS011;36117;46.680;11.154;2022-11-10T11:08:51;6.70;;;3.13;;
41289;SDS011;36117;46.680;11.154;2022-11-10T11:11:17;7.15;;;4.10;;
41289;SDS011;36117;46.680;11.154;2022-11-10T11:13:47;17.27;;;4.10;;
41289;SDS011;36117;46.680;11.154;2022-11-10T11:16:13;7.03;;;3.60;;
41289;SDS011;36117;46.680;11.154;2022-11-10T11:18:38;7.90;;;4.13;;
41289;SDS011;36117;46.680;11.154;2022-11-10T11:35:06;3.75;;;2.33;;
41289;SDS011;36117;46.680;11.154;2022-11-10T11:43:26;4.75;;;2.20;;
41289;SDS011;36117;46.680;11.154;2022-11-10T11:48:50;7.07;;;2.70;;
41289;SDS011;36117;46.680;11.154;2022-11-10T11:51:42;13.75;;;5.88;;
41289;SDS011;36117;46.680;11.154;2022-11-10T11:56:55;11.50;;;1.80;;
41289;SDS011;36117;46.680;11.154;2022-11-10T12:19:01;3.40;;;1.88;;
41289;SDS011;36117;46.680;11.154;2022-11-10T12:21:41;6.03;;;1.83;;
41289;SDS011;36117;46.680;11.154;2022-11-10T12:27:17;5.28;;;2.45;;
41289;SDS011;36117;46.680;11.154;2022-11-10T12:32:52;3.20;;;2.15;;
41289;SDS011;36117;46.680;11.154;2022-11-10T12:35:30;3.72;;;2.45;;
41289;SDS011;36117;46.680;11.154;2022-11-10T12:38:04;4.55;;;2.42;;
41289;SDS011;36117;46.680;11.154;2022-11-10T12:40:39;5.47;;;2.72;;
41289;SDS011;36117;46.680;11.154;2022-11-10T12:43:36;3.47;;;2.10;;
41289;SDS011;36117;46.680;11.154;2022-11-10T12:46:07;6.63;;;2.60;;
41289;SDS011;36117;46.680;11.154;2022-11-10T12:48:47;4.03;;;2.30;;
41289;SDS011;36117;46.680;11.154;2022-11-10T12:51:34;6.50;;;3.47;;
41289;SDS011;36117;46.680;11.154;2022-11-10T12:54:13;5.80;;;2.90;;
41289;SDS011;36117;46.680;11.154;2022-11-10T13:01:45;3.85;;;2.28;;
41289;SDS011;36117;46.680;11.154;2022-11-10T13:04:13;3.40;;;2.08;;
41289;SDS011;36117;46.680;11.154;2022-11-10T13:06:57;4.22;;;2.28;;
41289;SDS011;36117;46.680;11.154;2022-11-10T13:09:26;9.00;;;2.45;;
41289;SDS011;36117;46.680;11.154;2022-11-10T13:12:05;4.25;;;2.80;;
41289;SDS011;36117;46.680;11.154;2022-11-10T13:14:34;2.47;;;1.70;;
41289;SDS011;36117;46.680;11.154;2022-11-10T13:17:01;3.50;;;1.80;;
41289;SDS011;36117;46.680;11.154;2022-11-10T13:24:37;3.65;;;2.05;;
41289;SDS011;36117;46.680;11.154;2022-11-10T13:27:09;11.23;;;2.00;;
41289;SDS011;36117;46.680;11.154;2022-11-10T13:34:52;2.08;;;1.48;;
41289;SDS011;36117;46.680;11.154;2022-11-10T13:43:09;3.85;;;1.90;;
41289;SDS011;36117;46.680;11.154;2022-11-10T13:45:40;2.97;;;1.77;;
41289;SDS011;36117;46.680;11.154;2022-11-10T13:58:57;9.85;;;3.75;;
41289;SDS011;36117;46.680;11.154;2022-11-10T14:01:26;5.15;;;2.33;;
41289;SDS011;36117;46.680;11.154;2022-11-10T14:03:58;4.50;;;2.23;;
41289;SDS011;36117;46.680;11.154;2022-11-10T14:12:27;6.05;;;2.70;;
41289;SDS011;36117;46.680;11.154;2022-11-10T14:15:04;7.45;;;3.08;;
41289;SDS011;36117;46.680;11.154;2022-11-10T14:17:50;5.28;;;2.45;;
41289;SDS011;36117;46.680;11.154;2022-11-10T14:20:26;4.15;;;2.47;;
41289;SDS011;36117;46.680;11.154;2022-11-10T14:22:59;8.02;;;3.00;;
41289;SDS011;36117;46.680;11.154;2022-11-10T14:25:36;7.15;;;2.58;;
41289;SDS011;36117;46.680;11.154;2022-11-10T14:28:26;11.35;;;3.28;;
41289;SDS011;36117;46.680;11.154;2022-11-10T14:30:51;9.93;;;3.10;;
41289;SDS011;36117;46.680;11.154;2022-11-10T14:33:18;8.60;;;3.45;;
41289;SDS011;36117;46.680;11.154;2022-11-10T14:40:41;5.03;;;3.00;;
41289;SDS011;36117;46.680;11.154;2022-11-10T14:43:30;10.48;;;3.35;;
41289;SDS011;36117;46.680;11.154;2022-11-10T14:45:53;9.70;;;2.92;;
41289;SDS011;36117;46.680;11.154;2022-11-10T14:48:20;6.53;;;2.85;;
41289;SDS011;36117;46.680;11.154;2022-11-10T14:50:49;4.13;;;2.53;;
41289;SDS011;36117;46.680;11.154;2022-11-10T14:56:00;13.45;;;3.22;;
41289;SDS011;36117;46.680;11.154;2022-11-10T14:58:32;7.93;;;3.58;;
41289;SDS011;36117;46.680;11.154;2022-11-10T15:01:01;7.00;;;3.47;;
41289;SDS011;36117;46.680;11.154;2022-11-10T15:06:01;6.15;;;3.55;;
41289;SDS011;36117;46.680;11.154;2022-11-10T15:08:28;6.72;;;3.75;;
41289;SDS011;36117;46.680;11.154;2022-11-10T15:10:57;7.47;;;3.35;;
41289;SDS011;36117;46.680;11.154;2022-11-10T15:15:52;23.75;;;5.63;;
41289;SDS011;36117;46.680;11.154;2022-11-10T15:18:49;15.27;;;5.35;;
41289;SDS011;36117;46.680;11.154;2022-11-10T15:21:18;14.25;;;4.18;;
41289;SDS011;36117;46.680;11.154;2022-11-10T15:23:46;15.85;;;5.78;;
41289;SDS011;36117;46.680;11.154;2022-11-10T15:26:21;12.95;;;5.00;;
41289;SDS011;36117;46.680;11.154;2022-11-10T15:28:51;11.63;;;5.17;;
41289;SDS011;36117;46.680;11.154;2022-11-10T15:31:25;6.55;;;3.25;;
41289;SDS011;36117;46.680;11.154;2022-11-10T15:33:54;9.02;;;3.38;;
41289;SDS011;36117;46.680;11.154;2022-11-10T15:41:56;10.45;;;3.40;;
41289;SDS011;36117;46.680;11.154;2022-11-10T15:44:35;9.90;;;4.15;;
41289;SDS011;36117;46.680;11.154;2022-11-10T15:47:00;12.70;;;5.38;;
41289;SDS011;36117;46.680;11.154;2022-11-10T15:49:28;13.48;;;4.97;;
41289;SDS011;36117;46.680;11.154;2022-11-10T15:51:56;10.52;;;4.03;;
41289;SDS011;36117;46.680;11.154;2022-11-10T15:54:26;8.00;;;4.47;;
41289;SDS011;36117;46.680;11.154;2022-11-10T15:56:56;13.65;;;4.68;;
41289;SDS011;36117;46.680;11.154;2022-11-10T15:59:21;13.40;;;5.35;;
41289;SDS011;36117;46.680;11.154;2022-11-10T16:01:47;18.92;;;5.93;;
41289;SDS011;36117;46.680;11.154;2022-11-10T16:04:13;12.13;;;5.75;;
41289;SDS011;36117;46.680;11.154;2022-11-10T16:06:39;10.77;;;5.05;;
41289;SDS011;36117;46.680;11.154;2022-11-10T16:09:05;8.27;;;5.28;;
41289;SDS011;36117;46.680;11.154;2022-11-10T16:11:31;14.85;;;4.05;;
41289;SDS011;36117;46.680;11.154;2022-11-10T16:13:59;12.23;;;3.78;;
41289;SDS011;36117;46.680;11.154;2022-11-10T16:16:27;12.65;;;5.43;;
41289;SDS011;36117;46.680;11.154;2022-11-10T16:18:53;13.88;;;4.68;;
41289;SDS011;36117;46.680;11.154;2022-11-10T16:21:23;12.23;;;5.85;;
41289;SDS011;36117;46.680;11.154;2022-11-10T16:23:50;10.77;;;5.33;;
41289;SDS011;36117;46.680;11.154;2022-11-10T16:26:21;17.75;;;6.18;;
41289;SDS011;36117;46.680;11.154;2022-11-10T16:28:49;12.23;;;6.38;;
41289;SDS011;36117;46.680;11.154;2022-11-10T16:31:16;16.88;;;6.75;;
41289;SDS011;36117;46.680;11.154;2022-11-10T16:33:44;22.88;;;8.70;;
41289;SDS011;36117;46.680;11.154;2022-11-10T16:36:11;25.95;;;7.93;;
41289;SDS011;36117;46.680;11.154;2022-11-10T16:38:46;21.30;;;7.50;;
41289;SDS011;36117;46.680;11.154;2022-11-10T16:41:12;20.67;;;7.60;;
41289;SDS011;36117;46.680;11.154;2022-11-10T16:43:38;12.57;;;7.22;;
41289;SDS011;36117;46.680;11.154;2022-11-10T16:46:12;16.80;;;7.28;;
41289;SDS011;36117;46.680;11.154;2022-11-10T16:48:44;21.35;;;7.28;;
41289;SDS011;36117;46.680;11.154;2022-11-10T16:51:11;18.98;;;8.27;;
41289;SDS011;36117;46.680;11.154;2022-11-10T16:53:40;16.52;;;7.32;;
41289;SDS011;36117;46.680;11.154;2022-11-10T16:56:15;22.08;;;7.15;;
41289;SDS011;36117;46.680;11.154;2022-11-10T16:58:42;14.93;;;8.02;;
41289;SDS011;36117;46.680;11.154;2022-11-10T17:01:09;17.05;;;8.23;;
41289;SDS011;36117;46.680;11.154;2022-11-10T17:03:48;20.35;;;8.60;;
41289;SDS011;36117;46.680;11.154;2022-11-10T17:06:15;17.33;;;7.95;;